sensor_id;sensor_type;location;lat;lon;timestamp;P1;durP1;ratioP1;P2;durP2;ratioP2
14056;SDS011;7103;54.300;10.180;2023-03-23T00:01:05;0.00;;;0.00;;
14056;SDS011;7103;54.300;10.180;2023-03-23T00:03:32;0.10;;;0.10;;
14056;SDS011;7103;54.300;10.180;2023-03-23T00:05:58;0.10;;;0.10;;
14056;SDS011;7103;54.300;10.180;2023-03-23T00:08:35;0.10;;;0.10;;
14056;SDS011;7103;54.300;10.180;2023-03-23T00:11:18;0.10;;;0.10;;
14056;SDS011;7103;54.300;10.180;2023-03-23T00:13:46;0.10;;;0.10;;
14056;SDS011;7103;54.300;10.180;2023-03-23T00:16:17;0.10;;;0.10;;
14056;SDS011;7103;54.300;10.180;2023-03-23T00:21:10;0.10;;;0.10;;
14056;SDS011;7103;54.300;10.180;2023-03-23T00:23:36;0.10;;;0.10;;
14056;SDS011;7103;54.300;10.180;2023-03-23T00:26:03;0.00;;;0.00;;
14056;SDS011;7103;54.300;10.180;2023-03-23T00:28:29;0.00;;;0.00;;
14056;SDS011;7103;54.300;10.180;2023-03-23T00:30:58;0.10;;;0.10;;
14056;SDS011;7103;54.300;10.180;2023-03-23T00:33:27;0.10;;;0.10;;
14056;SDS011;7103;54.300;10.180;2023-03-23T00:35:54;0.10;;;0.10;;
14056;SDS011;7103;54.300;10.180;2023-03-23T00:38:21;0.10;;;0.10;;
14056;SDS011;7103;54.300;10.180;2023-03-23T00:40:48;0.00;;;0.00;;
14056;SDS011;7103;54.300;10.180;2023-03-23T00:43:15;0.10;;;0.10;;
14056;SDS011;7103;54.300;10.180;2023-03-23T00:45:42;0.10;;;0.10;;
14056;SDS011;7103;54.300;10.180;2023-03-23T00:48:10;0.00;;;0.00;;
14056;SDS011;7103;54.300;10.180;2023-03-23T00:50:39;0.10;;;0.10;;
14056;SDS011;7103;54.300;10.180;2023-03-23T00:53:05;0.10;;;0.10;;
14056;SDS011;7103;54.300;10.180;2023-03-23T00:55:31;0.00;;;0.00;;
14056;SDS011;7103;54.300;10.180;2023-03-23T00:57:59;0.07;;;0.07;;
14056;SDS011;7103;54.300;10.180;2023-03-23T01:00:25;0.00;;;0.00;;
14056;SDS011;7103;54.300;10.180;2023-03-23T01:02:52;0.10;;;0.10;;
14056;SDS011;7103;54.300;10.180;2023-03-23T01:05:18;0.10;;;0.10;;
14056;SDS011;7103;54.300;10.180;2023-03-23T01:07:44;0.03;;;0.03;;
14056;SDS011;7103;54.300;10.180;2023-03-23T01:10:11;0.00;;;0.00;;
14056;SDS011;7103;54.300;10.180;2023-03-23T01:12:41;0.00;;;0.00;;
14056;SDS011;7103;54.300;10.180;2023-03-23T01:15:09;0.00;;;0.00;;
14056;SDS011;7103;54.300;10.180;2023-03-23T01:17:40;0.00;;;0.00;;
14056;SDS011;7103;54.300;10.180;2023-03-23T01:20:06;0.00;;;0.00;;
14056;SDS011;7103;54.300;10.180;2023-03-23T01:22:32;0.00;;;0.00;;
14056;SDS011;7103;54.300;10.180;2023-03-23T01:24:58;0.00;;;0.00;;
14056;SDS011;7103;54.300;10.180;2023-03-23T01:27:24;0.00;;;0.00;;
14056;SDS011;7103;54.300;10.180;2023-03-23T01:29:50;0.00;;;0.00;;
14056;SDS011;7103;54.300;10.180;2023-03-23T01:32:16;0.10;;;0.10;;
14056;SDS011;7103;54.300;10.180;2023-03-23T01:34:42;0.10;;;0.10;;
14056;SDS011;7103;54.300;10.180;2023-03-23T01:37:08;0.10;;;0.10;;
14056;SDS011;7103;54.300;10.180;2023-03-23T01:39:35;0.10;;;0.10;;
14056;SDS011;7103;54.300;10.180;2023-03-23T01:42:02;0.10;;;0.10;;
14056;SDS011;7103;54.300;10.180;2023-03-23T01:46:57;0.10;;;0.10;;
14056;SDS011;7103;54.300;10.180;2023-03-23T01:49:27;0.10;;;0.10;;
14056;SDS011;7103;54.300;10.180;2023-03-23T01:51:59;0.10;;;0.10;;
14056;SDS011;7103;54.300;10.180;2023-03-23T01:54:42;0.10;;;0.10;;
14056;SDS011;7103;54.300;10.180;2023-03-23T01:57:11;0.10;;;0.10;;
14056;SDS011;7103;54.300;10.180;2023-03-23T01:59:41;0.10;;;0.10;;
14056;SDS011;7103;54.300;10.180;2023-03-23T02:02:10;0.10;;;0.10;;
14056;SDS011;7103;54.300;10.180;2023-03-23T02:04:37;0.10;;;0.10;;
14056;SDS011;7103;54.300;10.180;2023-03-23T02:07:07;0.10;;;0.10;;
14056;SDS011;7103;54.300;10.180;2023-03-23T02:09:33;0.10;;;0.10;;
14056;SDS011;7103;54.300;10.180;2023-03-23T02:11:59;0.00;;;0.00;;
14056;SDS011;7103;54.300;10.180;2023-03-23T02:14:25;0.03;;;0.03;;
14056;SDS011;7103;54.300;10.180;2023-03-23T02:25:40;0.10;;;0.10;;
14056;SDS011;7103;54.300;10.180;2023-03-23T02:33:39;0.00;;;0.00;;
14056;SDS011;7103;54.300;10.180;2023-03-23T02:36:13;0.00;;;0.00;;
14056;SDS011;7103;54.300;10.180;2023-03-23T02:38:56;0.00;;;0.00;;
14056;SDS011;7103;54.300;10.180;2023-03-23T02:41:24;0.00;;;0.00;;
14056;SDS011;7103;54.300;10.180;2023-03-23T02:43:56;0.00;;;0.00;;
14056;SDS011;7103;54.300;10.180;2023-03-23T02:46:22;0.00;;;0.00;;
14056;SDS011;7103;54.300;10.180;2023-03-23T02:48:50;0.00;;;0.00;;
14056;SDS011;7103;54.300;10.180;2023-03-23T02:51:21;0.00;;;0.00;;
14056;SDS011;7103;54.300;10.180;2023-03-23T02:53:49;0.10;;;0.10;;
14056;SDS011;7103;54.300;10.180;2023-03-23T02:56:17;0.00;;;0.00;;
14056;SDS011;7103;54.300;10.180;2023-03-23T02:58:44;0.10;;;0.10;;
14056;SDS011;7103;54.300;10.180;2023-03-23T03:01:13;0.10;;;0.10;;
14056;SDS011;7103;54.300;10.180;2023-03-23T03:04:01;0.10;;;0.10;;
14056;SDS011;7103;54.300;10.180;2023-03-23T03:09:29;0.10;;;0.10;;
14056;SDS011;7103;54.300;10.180;2023-03-23T03:11:58;0.00;;;0.00;;
14056;SDS011;7103;54.300;10.180;2023-03-23T03:14:31;0.10;;;0.10;;
14056;SDS011;7103;54.300;10.180;2023-03-23T03:17:22;0.10;;;0.10;;
14056;SDS011;7103;54.300;10.180;2023-03-23T03:19:51;0.10;;;0.10;;
14056;SDS011;7103;54.300;10.180;2023-03-23T03:22:21;0.00;;;0.00;;
14056;SDS011;7103;54.300;10.180;2023-03-23T03:24:48;0.00;;;0.00;;
14056;SDS011;7103;54.300;10.180;2023-03-23T03:27:17;0.10;;;0.10;;
14056;SDS011;7103;54.300;10.180;2023-03-23T03:29:45;0.10;;;0.10;;
14056;SDS011;7103;54.300;10.180;2023-03-23T03:32:18;0.10;;;0.10;;
14056;SDS011;7103;54.300;10.180;2023-03-23T03:34:48;0.10;;;0.10;;
14056;SDS011;7103;54.300;10.180;2023-03-23T03:37:16;0.00;;;0.00;;
14056;SDS011;7103;54.300;10.180;2023-03-23T03:39:42;0.00;;;0.00;;
14056;SDS011;7103;54.300;10.180;2023-03-23T03:42:08;0.10;;;0.10;;
14056;SDS011;7103;54.300;10.180;2023-03-23T03:44:34;0.00;;;0.00;;
14056;SDS011;7103;54.300;10.180;2023-03-23T03:47:00;0.00;;;0.00;;
14056;SDS011;7103;54.300;10.180;2023-03-23T03:49:26;0.00;;;0.00;;
14056;SDS011;7103;54.300;10.180;2023-03-23T03:51:52;0.03;;;0.03;;
14056;SDS011;7103;54.300;10.180;2023-03-23T03:54:18;0.10;;;0.10;;
14056;SDS011;7103;54.300;10.180;2023-03-23T03:56:44;0.03;;;0.03;;
14056;SDS011;7103;54.300;10.180;2023-03-23T03:59:10;0.00;;;0.00;;
14056;SDS011;7103;54.300;10.180;2023-03-23T04:01:37;0.10;;;0.10;;
14056;SDS011;7103;54.300;10.180;2023-03-23T04:04:04;0.10;;;0.10;;
14056;SDS011;7103;54.300;10.180;2023-03-23T04:06:32;0.10;;;0.10;;
14056;SDS011;7103;54.300;10.180;2023-03-23T04:09:01;0.10;;;0.10;;
14056;SDS011;7103;54.300;10.180;2023-03-23T04:11:31;0.10;;;0.10;;
14056;SDS011;7103;54.300;10.180;2023-03-23T04:13:57;0.10;;;0.10;;
14056;SDS011;7103;54.300;10.180;2023-03-23T04:16:23;0.10;;;0.10;;
14056;SDS011;7103;54.300;10.180;2023-03-23T04:18:49;0.13;;;0.13;;
14056;SDS011;7103;54.300;10.180;2023-03-23T04:21:15;0.10;;;0.10;;
14056;SDS011;7103;54.300;10.180;2023-03-23T04:23:41;0.10;;;0.10;;
14056;SDS011;7103;54.300;10.180;2023-03-23T04:26:07;0.10;;;0.10;;
14056;SDS011;7103;54.300;10.180;2023-03-23T04:28:33;0.10;;;0.10;;
14056;SDS011;7103;54.300;10.180;2023-03-23T04:30:59;0.10;;;0.10;;
14056;SDS011;7103;54.300;10.180;2023-03-23T04:33:26;0.10;;;0.10;;
14056;SDS011;7103;54.300;10.180;2023-03-23T04:35:55;0.10;;;0.10;;
14056;SDS011;7103;54.300;10.180;2023-03-23T04:38:26;0.10;;;0.10;;
14056;SDS011;7103;54.300;10.180;2023-03-23T04:40:55;0.10;;;0.10;;
14056;SDS011;7103;54.300;10.180;2023-03-23T04:43:22;0.10;;;0.10;;
14056;SDS011;7103;54.300;10.180;2023-03-23T04:45:53;0.10;;;0.10;;
14056;SDS011;7103;54.300;10.180;2023-03-23T04:48:26;0.10;;;0.10;;
14056;SDS011;7103;54.300;10.180;2023-03-23T04:50:55;0.10;;;0.10;;
14056;SDS011;7103;54.300;10.180;2023-03-23T04:53:21;0.10;;;0.10;;
14056;SDS011;7103;54.300;10.180;2023-03-23T04:55:47;0.10;;;0.10;;
14056;SDS011;7103;54.300;10.180;2023-03-23T04:58:14;0.10;;;0.10;;
14056;SDS011;7103;54.300;10.180;2023-03-23T05:00:41;0.10;;;0.10;;
14056;SDS011;7103;54.300;10.180;2023-03-23T05:03:15;0.10;;;0.10;;
14056;SDS011;7103;54.300;10.180;2023-03-23T05:05:44;0.10;;;0.10;;
14056;SDS011;7103;54.300;10.180;2023-03-23T05:08:15;0.10;;;0.10;;
14056;SDS011;7103;54.300;10.180;2023-03-23T05:10:42;0.10;;;0.10;;
14056;SDS011;7103;54.300;10.180;2023-03-23T05:13:14;0.10;;;0.10;;
14056;SDS011;7103;54.300;10.180;2023-03-23T05:15:40;0.10;;;0.10;;
14056;SDS011;7103;54.300;10.180;2023-03-23T05:18:06;0.10;;;0.10;;
14056;SDS011;7103;54.300;10.180;2023-03-23T05:20:34;0.10;;;0.10;;
14056;SDS011;7103;54.300;10.180;2023-03-23T05:23:00;0.10;;;0.10;;
14056;SDS011;7103;54.300;10.180;2023-03-23T05:25:26;0.10;;;0.10;;
14056;SDS011;7103;54.300;10.180;2023-03-23T05:27:51;0.10;;;0.10;;
14056;SDS011;7103;54.300;10.180;2023-03-23T05:30:20;0.10;;;0.10;;
14056;SDS011;7103;54.300;10.180;2023-03-23T05:32:47;0.00;;;0.00;;
14056;SDS011;7103;54.300;10.180;2023-03-23T05:35:16;0.00;;;0.00;;
14056;SDS011;7103;54.300;10.180;2023-03-23T05:37:43;0.00;;;0.00;;
14056;SDS011;7103;54.300;10.180;2023-03-23T05:40:10;0.00;;;0.00;;
14056;SDS011;7103;54.300;10.180;2023-03-23T05:42:37;0.00;;;0.00;;
14056;SDS011;7103;54.300;10.180;2023-03-23T05:45:06;0.00;;;0.00;;
14056;SDS011;7103;54.300;10.180;2023-03-23T05:47:34;0.07;;;0.07;;
14056;SDS011;7103;54.300;10.180;2023-03-23T05:50:00;0.00;;;0.00;;
14056;SDS011;7103;54.300;10.180;2023-03-23T05:52:27;0.00;;;0.00;;
14056;SDS011;7103;54.300;10.180;2023-03-23T05:54:53;0.00;;;0.00;;
14056;SDS011;7103;54.300;10.180;2023-03-23T05:57:19;0.00;;;0.00;;
14056;SDS011;7103;54.300;10.180;2023-03-23T05:59:48;0.00;;;0.00;;
14056;SDS011;7103;54.300;10.180;2023-03-23T06:02:14;0.00;;;0.00;;
14056;SDS011;7103;54.300;10.180;2023-03-23T06:04:40;0.00;;;0.00;;
14056;SDS011;7103;54.300;10.180;2023-03-23T06:07:06;0.00;;;0.00;;
14056;SDS011;7103;54.300;10.180;2023-03-23T06:09:37;0.00;;;0.00;;
14056;SDS011;7103;54.300;10.180;2023-03-23T06:12:03;0.00;;;0.00;;
14056;SDS011;7103;54.300;10.180;2023-03-23T06:14:29;0.00;;;0.00;;
14056;SDS011;7103;54.300;10.180;2023-03-23T06:16:56;0.00;;;0.00;;
14056;SDS011;7103;54.300;10.180;2023-03-23T06:19:22;0.00;;;0.00;;
14056;SDS011;7103;54.300;10.180;2023-03-23T06:21:48;0.00;;;0.00;;
14056;SDS011;7103;54.300;10.180;2023-03-23T06:24:14;0.00;;;0.00;;
14056;SDS011;7103;54.300;10.180;2023-03-23T06:26:40;0.00;;;0.00;;
14056;SDS011;7103;54.300;10.180;2023-03-23T06:29:06;0.00;;;0.00;;
14056;SDS011;7103;54.300;10.180;2023-03-23T06:31:49;0.00;;;0.00;;
14056;SDS011;7103;54.300;10.180;2023-03-23T06:34:19;0.00;;;0.00;;
14056;SDS011;7103;54.300;10.180;2023-03-23T06:36:45;0.00;;;0.00;;
14056;SDS011;7103;54.300;10.180;2023-03-23T06:39:12;0.00;;;0.00;;
14056;SDS011;7103;54.300;10.180;2023-03-23T06:41:38;0.00;;;0.00;;
14056;SDS011;7103;54.300;10.180;2023-03-23T06:44:04;0.00;;;0.00;;
14056;SDS011;7103;54.300;10.180;2023-03-23T06:46:31;0.00;;;0.00;;
14056;SDS011;7103;54.300;10.180;2023-03-23T06:48:57;0.00;;;0.00;;
14056;SDS011;7103;54.300;10.180;2023-03-23T06:51:23;0.00;;;0.00;;
14056;SDS011;7103;54.300;10.180;2023-03-23T06:53:49;0.00;;;0.00;;
14056;SDS011;7103;54.300;10.180;2023-03-23T06:56:15;0.00;;;0.00;;
14056;SDS011;7103;54.300;10.180;2023-03-23T06:58:41;0.00;;;0.00;;
14056;SDS011;7103;54.300;10.180;2023-03-23T07:01:08;0.00;;;0.00;;
14056;SDS011;7103;54.300;10.180;2023-03-23T07:03:34;0.00;;;0.00;;
14056;SDS011;7103;54.300;10.180;2023-03-23T07:06:02;0.00;;;0.00;;
14056;SDS011;7103;54.300;10.180;2023-03-23T07:08:29;0.00;;;0.00;;
14056;SDS011;7103;54.300;10.180;2023-03-23T07:10:55;0.00;;;0.00;;
14056;SDS011;7103;54.300;10.180;2023-03-23T07:13:22;0.00;;;0.00;;
14056;SDS011;7103;54.300;10.180;2023-03-23T07:15:48;0.00;;;0.00;;
14056;SDS011;7103;54.300;10.180;2023-03-23T07:18:15;0.00;;;0.00;;
14056;SDS011;7103;54.300;10.180;2023-03-23T07:20:41;0.00;;;0.00;;
14056;SDS011;7103;54.300;10.180;2023-03-23T07:23:08;0.00;;;0.00;;
14056;SDS011;7103;54.300;10.180;2023-03-23T07:25:34;0.00;;;0.00;;
14056;SDS011;7103;54.300;10.180;2023-03-23T07:28:00;0.00;;;0.00;;
14056;SDS011;7103;54.300;10.180;2023-03-23T07:30:28;0.00;;;0.00;;
14056;SDS011;7103;54.300;10.180;2023-03-23T07:32:55;0.00;;;0.00;;
14056;SDS011;7103;54.300;10.180;2023-03-23T07:35:22;0.00;;;0.00;;
14056;SDS011;7103;54.300;10.180;2023-03-23T07:37:48;0.00;;;0.00;;
14056;SDS011;7103;54.300;10.180;2023-03-23T07:40:15;0.00;;;0.00;;
14056;SDS011;7103;54.300;10.180;2023-03-23T07:42:45;0.00;;;0.00;;
14056;SDS011;7103;54.300;10.180;2023-03-23T07:45:14;0.00;;;0.00;;
14056;SDS011;7103;54.300;10.180;2023-03-23T07:47:40;0.00;;;0.00;;
14056;SDS011;7103;54.300;10.180;2023-03-23T07:50:07;0.10;;;0.10;;
14056;SDS011;7103;54.300;10.180;2023-03-23T07:52:34;0.00;;;0.00;;
14056;SDS011;7103;54.300;10.180;2023-03-23T07:55:01;0.03;;;0.03;;
14056;SDS011;7103;54.300;10.180;2023-03-23T07:57:28;0.00;;;0.00;;
14056;SDS011;7103;54.300;10.180;2023-03-23T07:59:55;0.10;;;0.10;;
14056;SDS011;7103;54.300;10.180;2023-03-23T08:02:22;0.10;;;0.10;;
14056;SDS011;7103;54.300;10.180;2023-03-23T08:04:48;0.10;;;0.10;;
14056;SDS011;7103;54.300;10.180;2023-03-23T08:07:15;0.10;;;0.10;;
14056;SDS011;7103;54.300;10.180;2023-03-23T08:09:42;0.10;;;0.10;;
14056;SDS011;7103;54.300;10.180;2023-03-23T08:12:08;0.10;;;0.10;;
14056;SDS011;7103;54.300;10.180;2023-03-23T08:14:35;0.10;;;0.10;;
14056;SDS011;7103;54.300;10.180;2023-03-23T08:17:00;0.10;;;0.10;;
14056;SDS011;7103;54.300;10.180;2023-03-23T08:19:26;0.10;;;0.10;;
14056;SDS011;7103;54.300;10.180;2023-03-23T08:21:52;0.10;;;0.10;;
14056;SDS011;7103;54.300;10.180;2023-03-23T08:24:18;0.10;;;0.10;;
14056;SDS011;7103;54.300;10.180;2023-03-23T08:26:44;0.20;;;0.20;;
14056;SDS011;7103;54.300;10.180;2023-03-23T08:29:10;0.10;;;0.10;;
14056;SDS011;7103;54.300;10.180;2023-03-23T08:31:37;0.10;;;0.10;;
14056;SDS011;7103;54.300;10.180;2023-03-23T08:34:04;0.10;;;0.10;;
14056;SDS011;7103;54.300;10.180;2023-03-23T08:36:34;0.10;;;0.10;;
14056;SDS011;7103;54.300;10.180;2023-03-23T08:39:03;0.10;;;0.10;;
14056;SDS011;7103;54.300;10.180;2023-03-23T08:41:30;0.10;;;0.10;;
14056;SDS011;7103;54.300;10.180;2023-03-23T08:43:56;0.20;;;0.20;;
14056;SDS011;7103;54.300;10.180;2023-03-23T08:46:22;0.20;;;0.20;;
14056;SDS011;7103;54.300;10.180;2023-03-23T08:48:49;0.10;;;0.10;;
14056;SDS011;7103;54.300;10.180;2023-03-23T08:51:14;0.20;;;0.20;;
14056;SDS011;7103;54.300;10.180;2023-03-23T08:53:40;0.10;;;0.10;;
14056;SDS011;7103;54.300;10.180;2023-03-23T08:56:08;0.20;;;0.20;;
14056;SDS011;7103;54.300;10.180;2023-03-23T08:58:36;0.20;;;0.20;;
14056;SDS011;7103;54.300;10.180;2023-03-23T09:01:03;0.20;;;0.20;;
14056;SDS011;7103;54.300;10.180;2023-03-23T09:03:31;0.20;;;0.20;;
14056;SDS011;7103;54.300;10.180;2023-03-23T09:06:02;0.30;;;0.30;;
14056;SDS011;7103;54.300;10.180;2023-03-23T09:08:31;0.20;;;0.20;;
14056;SDS011;7103;54.300;10.180;2023-03-23T09:10:58;0.20;;;0.20;;
14056;SDS011;7103;54.300;10.180;2023-03-23T09:13:24;0.20;;;0.20;;
14056;SDS011;7103;54.300;10.180;2023-03-23T09:15:50;0.30;;;0.30;;
14056;SDS011;7103;54.300;10.180;2023-03-23T09:18:17;0.20;;;0.20;;
14056;SDS011;7103;54.300;10.180;2023-03-23T09:20:44;0.30;;;0.30;;
14056;SDS011;7103;54.300;10.180;2023-03-23T09:23:10;0.20;;;0.20;;
14056;SDS011;7103;54.300;10.180;2023-03-23T09:25:38;0.20;;;0.20;;
14056;SDS011;7103;54.300;10.180;2023-03-23T09:28:04;0.30;;;0.30;;
14056;SDS011;7103;54.300;10.180;2023-03-23T09:30:31;0.30;;;0.30;;
14056;SDS011;7103;54.300;10.180;2023-03-23T09:33:02;0.30;;;0.30;;
14056;SDS011;7103;54.300;10.180;2023-03-23T09:35:30;0.30;;;0.30;;
14056;SDS011;7103;54.300;10.180;2023-03-23T09:37:59;0.20;;;0.20;;
14056;SDS011;7103;54.300;10.180;2023-03-23T09:46:27;0.20;;;0.20;;
14056;SDS011;7103;54.300;10.180;2023-03-23T09:49:16;0.30;;;0.30;;
14056;SDS011;7103;54.300;10.180;2023-03-23T09:52:02;0.30;;;0.30;;
14056;SDS011;7103;54.300;10.180;2023-03-23T09:54:50;0.30;;;0.30;;
14056;SDS011;7103;54.300;10.180;2023-03-23T09:59:56;0.23;;;0.23;;
14056;SDS011;7103;54.300;10.180;2023-03-23T10:02:52;0.27;;;0.27;;
14056;SDS011;7103;54.300;10.180;2023-03-23T10:05:35;0.30;;;0.30;;
14056;SDS011;7103;54.300;10.180;2023-03-23T10:08:08;0.20;;;0.20;;
14056;SDS011;7103;54.300;10.180;2023-03-23T10:10:45;0.30;;;0.30;;
14056;SDS011;7103;54.300;10.180;2023-03-23T10:13:39;0.30;;;0.30;;
14056;SDS011;7103;54.300;10.180;2023-03-23T10:16:36;0.20;;;0.20;;
14056;SDS011;7103;54.300;10.180;2023-03-23T10:22:02;0.30;;;0.30;;
14056;SDS011;7103;54.300;10.180;2023-03-23T10:25:34;0.30;;;0.30;;
14056;SDS011;7103;54.300;10.180;2023-03-23T10:27:40;0.20;;;0.20;;
14056;SDS011;7103;54.300;10.180;2023-03-23T10:34:01;0.30;;;0.30;;
14056;SDS011;7103;54.300;10.180;2023-03-23T10:36:20;0.20;;;0.20;;
14056;SDS011;7103;54.300;10.180;2023-03-23T10:38:59;0.30;;;0.30;;
14056;SDS011;7103;54.300;10.180;2023-03-23T10:41:36;0.27;;;0.27;;
14056;SDS011;7103;54.300;10.180;2023-03-23T10:44:08;0.20;;;0.20;;
14056;SDS011;7103;54.300;10.180;2023-03-23T10:49:14;0.20;;;0.20;;
14056;SDS011;7103;54.300;10.180;2023-03-23T10:51:47;0.30;;;0.30;;
14056;SDS011;7103;54.300;10.180;2023-03-23T10:54:37;0.30;;;0.30;;
14056;SDS011;7103;54.300;10.180;2023-03-23T10:57:40;0.20;;;0.20;;
14056;SDS011;7103;54.300;10.180;2023-03-23T11:00:00;0.30;;;0.30;;
14056;SDS011;7103;54.300;10.180;2023-03-23T11:02:31;0.30;;;0.30;;
14056;SDS011;7103;54.300;10.180;2023-03-23T11:05:04;0.30;;;0.30;;
14056;SDS011;7103;54.300;10.180;2023-03-23T11:07:55;0.20;;;0.20;;
14056;SDS011;7103;54.300;10.180;2023-03-23T11:10:23;0.20;;;0.20;;
14056;SDS011;7103;54.300;10.180;2023-03-23T11:13:00;0.30;;;0.30;;
14056;SDS011;7103;54.300;10.180;2023-03-23T11:15:33;0.30;;;0.30;;
14056;SDS011;7103;54.300;10.180;2023-03-23T11:18:05;0.30;;;0.30;;
14056;SDS011;7103;54.300;10.180;2023-03-23T11:20:36;0.30;;;0.30;;
14056;SDS011;7103;54.300;10.180;2023-03-23T11:23:09;0.30;;;0.30;;
14056;SDS011;7103;54.300;10.180;2023-03-23T11:28:18;0.30;;;0.30;;
14056;SDS011;7103;54.300;10.180;2023-03-23T11:30:44;0.30;;;0.30;;
14056;SDS011;7103;54.300;10.180;2023-03-23T11:33:11;0.30;;;0.30;;
14056;SDS011;7103;54.300;10.180;2023-03-23T11:35:42;0.40;;;0.40;;
14056;SDS011;7103;54.300;10.180;2023-03-23T11:38:11;0.20;;;0.20;;
14056;SDS011;7103;54.300;10.180;2023-03-23T11:40:52;0.30;;;0.30;;
14056;SDS011;7103;54.300;10.180;2023-03-23T11:43:19;0.30;;;0.30;;
14056;SDS011;7103;54.300;10.180;2023-03-23T11:49:01;0.30;;;0.30;;
14056;SDS011;7103;54.300;10.180;2023-03-23T11:51:32;0.30;;;0.30;;
14056;SDS011;7103;54.300;10.180;2023-03-23T11:56:42;0.40;;;0.40;;
14056;SDS011;7103;54.300;10.180;2023-03-23T11:59:12;0.30;;;0.30;;
14056;SDS011;7103;54.300;10.180;2023-03-23T12:12:42;0.30;;;0.30;;
14056;SDS011;7103;54.300;10.180;2023-03-23T12:21:08;0.37;;;0.37;;
14056;SDS011;7103;54.300;10.180;2023-03-23T12:23:27;0.20;;;0.20;;
14056;SDS011;7103;54.300;10.180;2023-03-23T12:35:31;0.30;;;0.30;;
14056;SDS011;7103;54.300;10.180;2023-03-23T12:38:21;0.30;;;0.30;;
14056;SDS011;7103;54.300;10.180;2023-03-23T12:43:51;0.30;;;0.30;;
14056;SDS011;7103;54.300;10.180;2023-03-23T12:49:43;0.30;;;0.30;;
14056;SDS011;7103;54.300;10.180;2023-03-23T12:55:11;0.20;;;0.20;;
14056;SDS011;7103;54.300;10.180;2023-03-23T12:58:01;0.20;;;0.20;;
14056;SDS011;7103;54.300;10.180;2023-03-23T13:00:53;0.30;;;0.30;;
14056;SDS011;7103;54.300;10.180;2023-03-23T13:03:43;0.20;;;0.20;;
14056;SDS011;7103;54.300;10.180;2023-03-23T13:06:28;0.20;;;0.20;;
14056;SDS011;7103;54.300;10.180;2023-03-23T13:11:34;0.30;;;0.30;;
14056;SDS011;7103;54.300;10.180;2023-03-23T13:26:05;0.33;;;0.33;;
14056;SDS011;7103;54.300;10.180;2023-03-23T13:28:14;0.30;;;0.30;;
14056;SDS011;7103;54.300;10.180;2023-03-23T13:30:59;0.30;;;0.30;;
14056;SDS011;7103;54.300;10.180;2023-03-23T13:33:32;0.20;;;0.20;;
14056;SDS011;7103;54.300;10.180;2023-03-23T13:36:10;0.20;;;0.20;;
14056;SDS011;7103;54.300;10.180;2023-03-23T13:38:38;0.20;;;0.20;;
14056;SDS011;7103;54.300;10.180;2023-03-23T13:41:12;0.30;;;0.30;;
14056;SDS011;7103;54.300;10.180;2023-03-23T13:43:41;0.30;;;0.30;;
14056;SDS011;7103;54.300;10.180;2023-03-23T13:57:00;0.20;;;0.20;;
14056;SDS011;7103;54.300;10.180;2023-03-23T14:01:54;0.30;;;0.30;;
14056;SDS011;7103;54.300;10.180;2023-03-23T14:04:23;0.37;;;0.37;;
14056;SDS011;7103;54.300;10.180;2023-03-23T14:07:07;0.40;;;0.40;;
14056;SDS011;7103;54.300;10.180;2023-03-23T14:09:39;0.30;;;0.30;;
14056;SDS011;7103;54.300;10.180;2023-03-23T14:12:27;0.30;;;0.30;;
14056;SDS011;7103;54.300;10.180;2023-03-23T14:14:59;0.30;;;0.30;;
14056;SDS011;7103;54.300;10.180;2023-03-23T14:17:30;0.23;;;0.23;;
14056;SDS011;7103;54.300;10.180;2023-03-23T14:20:06;0.30;;;0.30;;
14056;SDS011;7103;54.300;10.180;2023-03-23T14:22:35;0.20;;;0.20;;
14056;SDS011;7103;54.300;10.180;2023-03-23T14:25:15;0.20;;;0.20;;
14056;SDS011;7103;54.300;10.180;2023-03-23T14:27:43;0.30;;;0.30;;
14056;SDS011;7103;54.300;10.180;2023-03-23T14:30:18;0.30;;;0.30;;
14056;SDS011;7103;54.300;10.180;2023-03-23T14:32:45;0.30;;;0.30;;
14056;SDS011;7103;54.300;10.180;2023-03-23T14:35:16;0.20;;;0.20;;
14056;SDS011;7103;54.300;10.180;2023-03-23T14:37:54;0.20;;;0.20;;
14056;SDS011;7103;54.300;10.180;2023-03-23T14:40:21;0.20;;;0.20;;
14056;SDS011;7103;54.300;10.180;2023-03-23T14:42:47;0.30;;;0.30;;
14056;SDS011;7103;54.300;10.180;2023-03-23T14:45:17;0.23;;;0.23;;
14056;SDS011;7103;54.300;10.180;2023-03-23T14:47:49;0.20;;;0.20;;
14056;SDS011;7103;54.300;10.180;2023-03-23T14:50:39;0.23;;;0.23;;
14056;SDS011;7103;54.300;10.180;2023-03-23T14:53:18;0.27;;;0.27;;
14056;SDS011;7103;54.300;10.180;2023-03-23T14:56:00;0.30;;;0.30;;
14056;SDS011;7103;54.300;10.180;2023-03-23T14:58:29;0.30;;;0.30;;
14056;SDS011;7103;54.300;10.180;2023-03-23T15:01:05;0.30;;;0.30;;
14056;SDS011;7103;54.300;10.180;2023-03-23T15:03:43;0.30;;;0.30;;
14056;SDS011;7103;54.300;10.180;2023-03-23T15:06:27;0.20;;;0.20;;
14056;SDS011;7103;54.300;10.180;2023-03-23T15:08:56;0.23;;;0.23;;
14056;SDS011;7103;54.300;10.180;2023-03-23T15:11:28;0.20;;;0.20;;
14056;SDS011;7103;54.300;10.180;2023-03-23T15:13:58;0.30;;;0.30;;
14056;SDS011;7103;54.300;10.180;2023-03-23T15:16:32;0.20;;;0.20;;
14056;SDS011;7103;54.300;10.180;2023-03-23T15:19:00;0.30;;;0.30;;
14056;SDS011;7103;54.300;10.180;2023-03-23T15:21:30;0.20;;;0.20;;
14056;SDS011;7103;54.300;10.180;2023-03-23T15:23:59;0.20;;;0.20;;
14056;SDS011;7103;54.300;10.180;2023-03-23T15:26:27;0.20;;;0.20;;
14056;SDS011;7103;54.300;10.180;2023-03-23T15:31:33;0.30;;;0.30;;
14056;SDS011;7103;54.300;10.180;2023-03-23T15:34:11;0.30;;;0.30;;
14056;SDS011;7103;54.300;10.180;2023-03-23T15:36:59;0.30;;;0.30;;
14056;SDS011;7103;54.300;10.180;2023-03-23T15:39:27;0.30;;;0.30;;
14056;SDS011;7103;54.300;10.180;2023-03-23T15:41:54;0.30;;;0.30;;
14056;SDS011;7103;54.300;10.180;2023-03-23T15:44:31;0.27;;;0.27;;
14056;SDS011;7103;54.300;10.180;2023-03-23T15:47:17;0.20;;;0.20;;
14056;SDS011;7103;54.300;10.180;2023-03-23T15:49:45;0.30;;;0.30;;
14056;SDS011;7103;54.300;10.180;2023-03-23T15:52:12;0.20;;;0.20;;
14056;SDS011;7103;54.300;10.180;2023-03-23T15:54:45;0.20;;;0.20;;
14056;SDS011;7103;54.300;10.180;2023-03-23T15:57:12;0.20;;;0.20;;
14056;SDS011;7103;54.300;10.180;2023-03-23T15:59:38;0.30;;;0.30;;
14056;SDS011;7103;54.300;10.180;2023-03-23T16:02:05;0.27;;;0.27;;
14056;SDS011;7103;54.300;10.180;2023-03-23T16:04:32;0.30;;;0.30;;
14056;SDS011;7103;54.300;10.180;2023-03-23T16:06:59;0.20;;;0.20;;
14056;SDS011;7103;54.300;10.180;2023-03-23T16:09:26;0.30;;;0.30;;
14056;SDS011;7103;54.300;10.180;2023-03-23T16:11:53;0.30;;;0.30;;
14056;SDS011;7103;54.300;10.180;2023-03-23T16:14:19;0.30;;;0.30;;
14056;SDS011;7103;54.300;10.180;2023-03-23T16:16:47;0.30;;;0.30;;
14056;SDS011;7103;54.300;10.180;2023-03-23T16:19:16;0.30;;;0.30;;
14056;SDS011;7103;54.300;10.180;2023-03-23T16:21:45;0.23;;;0.23;;
14056;SDS011;7103;54.300;10.180;2023-03-23T16:24:12;0.20;;;0.20;;
14056;SDS011;7103;54.300;10.180;2023-03-23T16:26:39;0.30;;;0.30;;
14056;SDS011;7103;54.300;10.180;2023-03-23T16:29:13;0.30;;;0.30;;
14056;SDS011;7103;54.300;10.180;2023-03-23T16:32:01;0.20;;;0.20;;
14056;SDS011;7103;54.300;10.180;2023-03-23T16:34:28;0.20;;;0.20;;
14056;SDS011;7103;54.300;10.180;2023-03-23T16:36:58;0.20;;;0.20;;
14056;SDS011;7103;54.300;10.180;2023-03-23T16:39:25;0.20;;;0.20;;
14056;SDS011;7103;54.300;10.180;2023-03-23T16:41:52;0.30;;;0.30;;
14056;SDS011;7103;54.300;10.180;2023-03-23T16:44:19;0.30;;;0.30;;
14056;SDS011;7103;54.300;10.180;2023-03-23T16:46:46;0.30;;;0.30;;
14056;SDS011;7103;54.300;10.180;2023-03-23T16:49:13;0.30;;;0.30;;
14056;SDS011;7103;54.300;10.180;2023-03-23T16:51:39;0.30;;;0.30;;
14056;SDS011;7103;54.300;10.180;2023-03-23T16:54:08;0.30;;;0.30;;
14056;SDS011;7103;54.300;10.180;2023-03-23T16:56:35;0.27;;;0.27;;
14056;SDS011;7103;54.300;10.180;2023-03-23T16:59:03;0.30;;;0.30;;